• Join FlightAware (Why Join?)
  • Login
  • US Flag 
03:36AM EDT


 

Airport Tracker/Info


-or-


 

Live Flight TrackerFlight Track Log ✈ N235SR ✈ 25-Apr-2012 ✈ KELN - KMWH

Flight Track Log - Related Links

Times and Time Zones

All times are in EDT time to prevent confusion due to time zone crossing. See the N235SR flight status page for this flight to view local times or setup timezone preferences in your user account.

Time Position Orientation Groundspeed Altitude Reporting Facility
EDT Latitude Longitude Course Direction KTS MPH feet Rate Location/Type
03:00PM 47.0167 -120.4915 75° East  Level FlightAware Approximate
03:01PM 47.0517 -120.2944 77° East 95 109 5,600  Level Seattle Center
03:02PM 47.0564 -120.2647 83° East 93 107 6,100 480 Climbing Seattle Center
03:03PM 47.0594 -120.2286 79° East 90 104 6,700 360 Climbing Seattle Center
03:04PM 47.0656 -120.1836 64° Northeast 93 107 6,900 240 Climbing Seattle Center
03:05PM 47.0783 -120.1444 72° East 107 123 7,200  Climbing Seattle Center
03:06PM 47.0869 -120.1056 87° East 123 142 7,000 -120 Descending Seattle Center
03:07PM 47.0889 -120.0572 75° East 99 114 7,000  Level Seattle Center
03:08PM 47.0964 -120.0158 74° East 105 121 7,100  Climbing Seattle Center
03:09PM 47.1056 -119.9694 76° East 115 132 7,100 -120 Level Seattle Center
03:10PM 47.1136 -119.9236 91° East 117 135 6,900 -480 Descending Seattle Center
03:11PM 47.1131 -119.8806 92° East 107 123 6,200 -540 Descending Seattle Center
03:12PM 47.1119 -119.8367 89° East 108 124 5,900 -420 Descending Seattle Center
03:13PM 47.1125 -119.7836 89° East 109 125 5,400 -480 Descending Seattle Center
03:14PM 47.1128 -119.7392 99° East 109 125 5,000 -540 Descending Seattle Center
03:15PM 47.1078 -119.6953 98° East 109 125 4,400 -480 Descending Seattle Center
03:16PM 47.1039 -119.6536 99° East 105 121 4,100 -240 Descending Seattle Center
03:17PM 47.0994 -119.6108 98° East 106 122 4,000 -60 Descending Seattle Center
03:18PM 47.0953 -119.5694 99° East 104 120 4,000  Level Seattle Center
03:19PM 47.0911 -119.5322 93° East 96 110 4,000  Level Seattle Center
03:20PM 47.0897 -119.4933 59° Northeast 97 112 4,100  Climbing Seattle Center
03:21PM 47.1058 -119.4542 59° Northeast 109 125 4,000 -120 Descending Seattle Center